Monday, October 22, 2018, 9:58 PM EDT
Back to Local

KAFN, Jaffrey Muni-silver Ranch

Location: Jaffrey, NH, United States Lat: 42.8
Local Time: 9:58 PM EDT ( 1:58 GMT) Lon: -72
Time Zone: US/Eastern Elev: 1040 ft

Show me the last for .
Show Decoded

2018-10-22 20:52 METAR KAFN 230052Z AUTO 20003KT 10SM OVC042 06/01 A3015 RMK AO2 SLP224 T00560006
                 =
2018-10-22 19:52 METAR KAFN 222352Z AUTO 19005KT 10SM OVC046 06/00 A3014 RMK AO2 SLP221 T00610000
                 10078 20056 53011 =
2018-10-22 18:52 METAR KAFN 222252Z AUTO 20006KT 10SM OVC050 06/M01 A3013 RMK AO2 SLP218
                 T00611006 =
2018-10-22 17:52 METAR KAFN 222152Z AUTO 21004KT 10SM OVC055 07/M01 A3012 RMK AO2 SLP213
                 T00671011 =
2018-10-22 16:52 METAR KAFN 222052Z AUTO 26005KT 10SM OVC060 07/M03 A3011 RMK AO2 SLP209
                 T00721028 56002 =
2018-10-22 15:52 METAR KAFN 221952Z AUTO VRB04KT 10SM FEW050 SCT060 OVC100 07/M04 A3011 RMK AO2
                 SLP211 T00721039 =
2018-10-22 14:52 METAR KAFN 221852Z AUTO 26005KT 10SM OVC050 08/M04 A3011 RMK AO2 SLP209
                 T00781039 =
2018-10-22 13:52 METAR KAFN 221752Z AUTO 00000KT 10SM OVC050 07/M03 A3012 RMK AO2 SLP212
                 T00721033 10072 21011 58009 =
2018-10-22 12:52 METAR KAFN 221652Z AUTO 24007KT 210V270 10SM FEW045 07/M03 A3013 RMK AO2 SLP219
                 T00671033 =
2018-10-22 11:52 METAR KAFN 221552Z AUTO 27009KT 10SM CLR 06/M04 A3013 RMK AO2 SLP218 T00611039 =
2018-10-22 10:52 METAR KAFN 221452Z AUTO 26009G14KT 10SM CLR 05/M04 A3014 RMK AO2 SLP221
                 T00501044 51004 =
2018-10-22 09:52 METAR KAFN 221352Z AUTO 26006KT 10SM CLR 03/M04 A3014 RMK AO2 SLP222 T00331039 =
2018-10-22 08:52 METAR KAFN 221252Z AUTO 23004KT 10SM CLR 01/M05 A3014 RMK AO2 SLP222 T00111050 =
2018-10-22 07:52 METAR KAFN 221152Z AUTO 26004KT 10SM CLR M01/M06 A3013 RMK AO2 SLP219 T10111056
                 10006 21022 52018 =
2018-10-22 06:52 METAR KAFN 221052Z AUTO 00000KT 10SM CLR M02/M06 A3011 RMK AO2 SLP213 T10171061
                 =
2018-10-22 05:52 METAR KAFN 220952Z AUTO 26004KT 10SM CLR M01/M07 A3010 RMK AO2 SLP208 T10061072
                 =
2018-10-22 04:52 METAR KAFN 220852Z AUTO 28005KT 10SM CLR 00/M07 A3008 RMK AO2 SLP200 T00001072
                 51003 =
2018-10-22 03:52 METAR KAFN 220752Z AUTO 27006KT 10SM CLR M01/M07 A3007 RMK AO2 SLP198 T10061072
                 =
2018-10-22 02:52 METAR KAFN 220652Z AUTO 25005KT 10SM CLR M01/M07 A3007 RMK AO2 SLP199 T10061072
                 =
2018-10-22 01:52 METAR KAFN 220552Z AUTO 00000KT 10SM CLR M02/M06 A3007 RMK AO2 SLP198 T10171061
                 10017 21022 53006 =
2018-10-22 00:52 METAR KAFN 220452Z AUTO 00000KT 10SM CLR M01/M07 A3006 RMK AO2 SLP194 T10111067
                 400831011 =
2018-10-21 23:52 METAR KAFN 220352Z AUTO 30004KT 10SM BKN048 01/M07 A3005 RMK AO2 SLP190
                 T00061072 =
2018-10-21 22:52 METAR KAFN 220252Z AUTO 00000KT 10SM OVC046 01/M07 A3005 RMK AO2 SLP190
                 T00111072 53022 =

Support USWX by starting your Amazon purchase here.